Time;durP1;ratioP1;P1;durP2;ratioP2;P2;SDS_P1;SDS_P2;PMS_P1;PMS_P2;Temp;Humidity;BMP_temperature;BMP_pressure;BME280_temperature;BME280_humidity;BME280_pressure;Samples;Min_cycle;Max_cycle;Signal;HPM_P1;HPM_P2
2021/01/06 00:01:19;;;;;;;28.17;21.88;;;3.10;99.90;;;;;;4987480;28;20400;-71
2021/01/06 00:03:47;;;;;;;26.98;21.55;;;3.10;99.90;;;;;;4989285;28;20427;-71
2021/01/06 00:06:15;;;;;;;24.73;20.55;;;3.10;99.90;;;;;;4987191;28;20421;-71
2021/01/06 00:08:42;;;;;;;26.85;21.60;;;3.10;99.90;;;;;;4989548;28;20474;-71
2021/01/06 00:11:08;;;;;;;28.42;22.00;;;3.10;99.90;;;;;;4991853;28;20415;-71
2021/01/06 00:13:34;;;;;;;28.17;22.27;;;3.20;99.90;;;;;;4991617;28;20434;-71
2021/01/06 00:16:01;;;;;;;27.90;22.48;;;3.20;99.90;;;;;;4993053;28;20810;-71
2021/01/06 00:18:27;;;;;;;29.27;22.75;;;3.20;99.90;;;;;;4988533;28;20499;-71
2021/01/06 00:20:54;;;;;;;27.08;21.98;;;3.30;99.90;;;;;;4986301;28;20400;-71
2021/01/06 00:23:20;;;;;;;26.05;21.65;;;3.30;99.90;;;;;;4992899;28;20441;-71
2021/01/06 00:25:46;;;;;;;26.25;21.30;;;3.30;99.90;;;;;;4985902;28;20805;-71
2021/01/06 00:28:14;;;;;;;23.73;19.63;;;3.20;99.90;;;;;;4985428;28;20456;-71
2021/01/06 00:30:45;;;;;;;23.02;19.67;;;3.20;99.90;;;;;;4989627;28;20806;-71
2021/01/06 00:33:15;;;;;;;24.05;20.15;;;3.20;99.90;;;;;;4989157;28;20508;-71
2021/01/06 00:35:41;;;;;;;25.42;21.02;;;3.30;99.90;;;;;;4989528;28;20432;-71
2021/01/06 00:38:07;;;;;;;23.35;20.02;;;3.30;99.90;;;;;;4989136;28;20409;-71
2021/01/06 00:40:34;;;;;;;22.80;19.23;;;3.30;99.90;;;;;;4988281;28;20397;-71
2021/01/06 00:43:03;;;;;;;25.08;20.50;;;3.30;99.90;;;;;;4986660;28;20398;-71
2021/01/06 00:45:28;;;;;;;24.25;20.23;;;3.30;99.90;;;;;;5000782;28;21146;-71
2021/01/06 00:47:55;;;;;;;25.05;21.08;;;3.40;99.90;;;;;;4992595;28;20444;-71
2021/01/06 00:50:26;;;;;;;24.15;20.58;;;3.40;99.90;;;;;;4988002;28;20423;-71
2021/01/06 00:52:57;;;;;;;25.10;21.08;;;3.40;99.90;;;;;;4991637;28;20399;-71
2021/01/06 00:55:22;;;;;;;26.73;22.35;;;3.40;99.90;;;;;;4992649;28;20425;-71
2021/01/06 00:57:51;;;;;;;23.05;19.55;;;3.30;99.90;;;;;;4991924;28;20402;-71
2021/01/06 01:00:20;;;;;;;25.90;21.55;;;3.30;99.90;;;;;;4992764;28;20758;-71
2021/01/06 01:02:50;;;;;;;25.33;20.92;;;3.30;99.90;;;;;;4990303;28;20438;-71
2021/01/06 01:05:17;;;;;;;23.67;20.05;;;3.30;99.90;;;;;;4989437;28;20410;-71
2021/01/06 01:07:44;;;;;;;24.80;20.90;;;3.30;99.90;;;;;;4990002;28;20465;-71
2021/01/06 01:10:25;;;;;;;24.88;21.05;;;3.40;99.90;;;;;;4989711;28;20483;-71
2021/01/06 01:12:53;;;;;;;24.60;20.50;;;3.40;99.90;;;;;;4992182;28;20394;-71
2021/01/06 01:15:20;;;;;;;23.73;19.98;;;3.40;99.90;;;;;;4992256;28;20825;-71
2021/01/06 01:17:47;;;;;;;21.52;19.23;;;3.40;99.90;;;;;;4992418;28;20422;-71
2021/01/06 01:20:15;;;;;;;22.50;18.73;;;3.40;99.90;;;;;;4991840;28;20401;-71
2021/01/06 01:22:42;;;;;;;24.23;20.45;;;3.40;99.90;;;;;;4989788;28;20969;-71
2021/01/06 01:25:10;;;;;;;25.15;20.85;;;3.40;99.90;;;;;;4989729;28;20413;-71
2021/01/06 01:27:36;;;;;;;23.48;20.23;;;3.40;99.90;;;;;;4988387;28;20456;-71
2021/01/06 01:30:02;;;;;;;25.35;21.50;;;3.40;99.90;;;;;;4986756;28;20441;-71
2021/01/06 01:32:28;;;;;;;25.23;21.02;;;3.40;99.90;;;;;;4987527;28;20449;-71
2021/01/06 01:34:54;;;;;;;24.25;20.85;;;3.40;99.90;;;;;;4989176;28;20418;-71
2021/01/06 01:37:20;;;;;;;24.48;20.77;;;3.40;99.90;;;;;;4990875;28;20411;-71
2021/01/06 01:39:46;;;;;;;25.88;20.85;;;3.30;99.90;;;;;;4985305;28;20402;-71
2021/01/06 01:42:12;;;;;;;33.55;25.90;;;3.30;99.90;;;;;;4989350;28;20414;-71
2021/01/06 01:44:59;;;;;;;33.83;24.77;;;3.20;99.90;;;;;;4983930;28;20416;-71
2021/01/06 01:47:31;;;;;;;34.45;24.88;;;3.20;99.90;;;;;;4993416;28;20398;-71
2021/01/06 01:49:58;;;;;;;32.05;23.98;;;3.20;99.90;;;;;;4988126;28;20393;-71
2021/01/06 01:52:28;;;;;;;27.63;22.52;;;3.20;99.90;;;;;;4986822;28;20395;-71
2021/01/06 01:54:56;;;;;;;27.67;23.17;;;3.10;99.90;;;;;;4992839;28;20456;-71
2021/01/06 01:57:27;;;;;;;26.92;22.42;;;3.10;99.90;;;;;;4987586;28;20869;-71
2021/01/06 01:59:57;;;;;;;26.35;21.15;;;3.10;99.90;;;;;;4993410;28;20401;-71
2021/01/06 02:02:31;;;;;;;26.27;21.15;;;3.10;99.90;;;;;;4985161;28;20406;-71
2021/01/06 02:05:02;;;;;;;25.85;21.30;;;3.00;99.90;;;;;;5003357;23;20445;-77
2021/01/06 02:07:33;;;;;;;25.13;20.77;;;3.00;99.90;;;;;;4988568;28;20412;-77
2021/01/06 02:10:04;;;;;;;24.45;20.65;;;3.00;99.90;;;;;;4981586;28;20578;-77
2021/01/06 02:12:42;;;;;;;26.47;21.20;;;2.90;99.90;;;;;;4980027;28;20651;-77
2021/01/06 02:15:16;;;;;;;24.17;20.83;;;2.90;99.90;;;;;;4984250;28;20446;-77
2021/01/06 02:17:42;;;;;;;24.27;20.53;;;3.00;99.90;;;;;;4989047;28;20910;-77
2021/01/06 02:20:12;;;;;;;22.42;19.45;;;2.90;99.90;;;;;;4985442;28;20402;-78
2021/01/06 02:22:39;;;;;;;21.90;19.43;;;2.90;99.90;;;;;;4982862;28;20971;-77
2021/01/06 02:25:06;;;;;;;27.00;22.05;;;2.80;99.90;;;;;;4988063;28;20411;-77
2021/01/06 02:27:32;;;;;;;26.13;20.80;;;2.80;99.90;;;;;;4980706;28;20394;-77
2021/01/06 02:29:58;;;;;;;26.60;21.95;;;2.70;99.90;;;;;;4990127;28;20391;-77
2021/01/06 02:32:24;;;;;;;25.48;21.45;;;2.70;99.90;;;;;;4987766;28;20413;-77
2021/01/06 02:34:50;;;;;;;26.35;22.33;;;2.70;99.90;;;;;;4985976;28;20469;-77
2021/01/06 02:37:16;;;;;;;27.33;22.17;;;2.70;99.90;;;;;;4993403;28;20445;-77
2021/01/06 02:39:43;;;;;;;26.10;22.45;;;2.70;99.90;;;;;;4988989;28;20831;-77
2021/01/06 02:42:11;;;;;;;26.85;22.70;;;2.70;99.90;;;;;;4988092;28;20754;-77
2021/01/06 02:44:37;;;;;;;27.45;21.98;;;2.70;99.90;;;;;;4991270;28;20407;-77
2021/01/06 02:47:03;;;;;;;25.90;21.33;;;2.60;99.90;;;;;;4989305;28;20396;-76
2021/01/06 02:49:29;;;;;;;24.95;20.70;;;2.60;99.90;;;;;;4989453;28;20437;-77
2021/01/06 02:52:04;;;;;;;31.88;25.35;;;2.60;99.90;;;;;;4994259;28;20403;-76
2021/01/06 02:54:34;;;;;;;27.23;22.35;;;2.60;99.90;;;;;;4985107;28;20425;-77
2021/01/06 02:57:02;;;;;;;27.05;22.17;;;2.50;99.90;;;;;;4985372;28;20439;-77
2021/01/06 02:59:32;;;;;;;35.30;27.23;;;2.50;99.90;;;;;;4983520;28;20398;-76
2021/01/06 03:02:00;;;;;;;30.85;25.67;;;2.50;99.90;;;;;;4984542;28;20421;-77
2021/01/06 03:04:31;;;;;;;28.13;22.83;;;2.40;99.90;;;;;;4982288;28;20412;-76
2021/01/06 03:06:59;;;;;;;26.90;21.75;;;2.40;99.90;;;;;;4983984;28;20413;-76
2021/01/06 03:09:29;;;;;;;29.95;23.60;;;2.40;99.90;;;;;;4982554;28;20427;-77
2021/01/06 03:11:57;;;;;;;26.70;21.40;;;2.20;99.90;;;;;;4985067;28;20862;-76
2021/01/06 03:14:26;;;;;;;21.90;17.48;;;2.30;99.90;;;;;;4985858;28;20918;-77
2021/01/06 03:16:52;;;;;;;15.55;12.55;;;2.30;99.90;;;;;;4982580;28;20404;-77
2021/01/06 03:19:20;;;;;;;14.52;11.45;;;2.40;99.90;;;;;;4990973;28;20894;-77
2021/01/06 03:21:47;;;;;;;13.07;10.30;;;;;;;;;;4987839;28;20416;-77
2021/01/06 03:24:14;;;;;;;11.55;9.73;;;2.40;99.90;;;;;;4984637;28;20404;-76
2021/01/06 03:26:41;;;;;;;11.85;9.98;;;2.50;99.90;;;;;;4975965;28;20435;-77
2021/01/06 03:29:08;;;;;;;11.98;9.75;;;2.50;99.90;;;;;;4984201;28;20403;-76
2021/01/06 03:31:40;;;;;;;11.82;9.63;;;2.50;99.90;;;;;;4989917;28;20459;-77
2021/01/06 03:34:14;;;;;;;10.55;8.60;;;2.50;99.90;;;;;;4992822;28;20468;-77
2021/01/06 03:36:44;;;;;;;12.95;9.98;;;2.50;99.90;;;;;;4980564;28;20466;-77
2021/01/06 03:39:17;;;;;;;13.93;11.13;;;2.60;99.90;;;;;;4987492;28;20429;-77
2021/01/06 03:41:43;;;;;;;14.50;11.80;;;2.60;99.90;;;;;;4996485;28;20404;-77
2021/01/06 03:44:12;;;;;;;13.27;11.45;;;2.60;99.90;;;;;;4993379;28;20390;-77
2021/01/06 03:46:46;;;;;;;16.48;13.30;;;2.60;99.90;;;;;;4984707;28;20884;-77
2021/01/06 03:49:20;;;;;;;17.13;14.25;;;2.60;99.90;;;;;;4985691;28;20974;-77
2021/01/06 03:51:55;;;;;;;19.15;16.17;;;2.50;99.90;;;;;;4991623;28;20482;-77
2021/01/06 03:54:29;;;;;;;20.88;16.63;;;2.50;99.90;;;;;;4979191;28;20412;-76
2021/01/06 03:56:58;;;;;;;20.07;16.03;;;2.50;99.90;;;;;;4987352;28;20404;-76
2021/01/06 03:59:28;;;;;;;20.38;17.00;;;2.40;99.90;;;;;;4985909;28;20823;-76
2021/01/06 04:01:59;;;;;;;20.02;16.63;;;2.50;99.90;;;;;;4983472;28;20413;-76
2021/01/06 04:04:29;;;;;;;15.82;14.02;;;2.30;99.90;;;;;;4981658;28;20441;-76
2021/01/06 04:06:57;;;;;;;16.88;13.52;;;2.40;99.90;;;;;;4990717;28;20445;-76
2021/01/06 04:09:32;;;;;;;15.55;12.65;;;2.40;99.90;;;;;;4984576;28;20405;-77
2021/01/06 04:12:04;;;;;;;11.35;9.57;;;2.50;99.90;;;;;;4988571;28;20459;-76
2021/01/06 04:14:30;;;;;;;8.43;6.72;;;2.60;99.90;;;;;;4998617;28;20427;-77
2021/01/06 04:17:03;;;;;;;11.18;9.27;;;2.50;99.90;;;;;;4988619;28;20397;-76
2021/01/06 04:19:28;;;;;;;15.13;10.98;;;2.70;99.90;;;;;;4986069;28;20408;-76
2021/01/06 04:21:57;;;;;;;16.10;12.45;;;;;;;;;;4982593;28;20404;-77
2021/01/06 04:24:23;;;;;;;10.98;8.25;;;2.70;99.90;;;;;;4981393;28;20445;-76
2021/01/06 04:26:49;;;;;;;8.25;6.40;;;2.90;99.90;;;;;;4989604;28;20422;-76
2021/01/06 04:29:15;;;;;;;8.13;6.22;;;2.90;99.90;;;;;;4985469;28;20911;-77
2021/01/06 04:31:41;;;;;;;5.13;4.10;;;2.90;99.90;;;;;;4980317;28;20392;-76
2021/01/06 04:34:08;;;;;;;5.72;4.90;;;2.90;99.90;;;;;;4991916;28;20510;-76
2021/01/06 04:36:37;;;;;;;5.25;4.03;;;2.80;99.90;;;;;;4982591;28;20413;-76
2021/01/06 04:39:05;;;;;;;6.13;4.27;;;2.70;99.90;;;;;;4975049;28;20408;-77
2021/01/06 04:41:43;;;;;;;6.53;4.03;;;2.70;99.90;;;;;;4986140;28;20453;-76
2021/01/06 04:44:33;;;;;;;7.03;4.53;;;2.70;99.90;;;;;;4975621;28;20891;-77
2021/01/06 04:47:16;;;;;;;6.28;3.58;;;2.60;99.90;;;;;;4972196;28;20414;-77
2021/01/06 04:49:55;;;;;;;4.35;3.47;;;2.60;99.90;;;;;;4983926;28;20410;-77
2021/01/06 04:52:34;;;;;;;4.20;3.33;;;2.60;99.90;;;;;;4978714;28;20899;-77
2021/01/06 04:55:12;;;;;;;4.87;3.97;;;2.50;99.90;;;;;;4980555;28;20418;-76
2021/01/06 04:58:04;;;;;;;4.38;3.00;;;2.50;99.90;;;;;;4991892;28;20786;-76
2021/01/06 05:00:38;;;;;;;3.80;3.40;;;2.50;99.90;;;;;;4970989;28;20415;-76
2021/01/06 05:03:28;;;;;;;5.32;4.57;;;2.40;99.90;;;;;;4978953;28;20748;-76
2021/01/06 05:06:18;;;;;;;5.00;4.30;;;2.40;99.90;;;;;;4978104;28;20398;-76
2021/01/06 05:08:47;;;;;;;4.40;3.63;;;2.30;99.90;;;;;;4966183;28;20754;-76
2021/01/06 05:11:22;;;;;;;5.00;3.75;;;2.30;99.90;;;;;;4984396;28;20449;-76
2021/01/06 05:13:53;;;;;;;5.07;3.83;;;2.30;99.90;;;;;;4985887;28;20414;-76
2021/01/06 05:16:23;;;;;;;4.53;3.30;;;2.30;99.90;;;;;;4978290;28;20409;-77
2021/01/06 05:18:50;;;;;;;3.55;2.75;;;2.30;99.90;;;;;;4985240;28;20493;-76
2021/01/06 05:21:20;;;;;;;4.03;3.03;;;2.40;99.90;;;;;;4980803;28;20471;-76
2021/01/06 05:23:50;;;;;;;4.60;3.20;;;2.30;99.90;;;;;;4990981;28;20414;-76
2021/01/06 05:26:15;;;;;;;4.20;2.97;;;2.20;99.90;;;;;;4984556;28;20416;-76
2021/01/06 05:28:43;;;;;;;3.55;2.90;;;2.00;98.90;;;;;;4988553;28;20458;-76
2021/01/06 05:31:09;;;;;;;3.80;3.00;;;2.00;99.20;;;;;;4993774;28;20453;-77
2021/01/06 05:33:38;;;;;;;3.65;3.25;;;2.10;99.40;;;;;;4986720;28;20937;-76
2021/01/06 05:36:05;;;;;;;5.30;2.72;;;2.00;99.60;;;;;;4989935;28;20422;-76
2021/01/06 05:38:33;;;;;;;3.10;2.35;;;2.10;98.60;;;;;;4989841;28;20921;-76
2021/01/06 05:40:59;;;;;;;3.30;2.30;;;1.90;98.80;;;;;;4979472;28;20811;-77
2021/01/06 05:43:49;;;;;;;4.03;2.30;;;1.90;98.70;;;;;;4993885;28;20928;-77
2021/01/06 05:46:24;;;;;;;3.63;2.70;;;2.00;98.20;;;;;;4969554;28;20450;-76
2021/01/06 05:48:53;;;;;;;3.08;2.65;;;;;;;;;;4991514;28;20771;-77
2021/01/06 05:51:21;;;;;;;2.97;2.35;;;;;;;;;;4989183;28;20394;-76
2021/01/06 05:53:55;;;;;;;3.63;2.10;;;;;;;;;;4988181;28;20422;-76
2021/01/06 05:56:25;;;;;;;3.50;2.58;;;;;;;;;;4981733;28;20466;-76
2021/01/06 05:58:56;;;;;;;2.70;2.10;;;1.90;98.30;;;;;;4988122;28;20817;-76
2021/01/06 06:01:34;;;;;;;3.25;2.40;;;1.80;98.50;;;;;;4991402;28;20440;-77
2021/01/06 06:04:15;;;;;;;3.00;2.30;;;1.80;98.30;;;;;;4983164;28;20503;-76
2021/01/06 06:06:50;;;;;;;2.57;2.03;;;1.80;98.20;;;;;;4987028;28;20407;-76
2021/01/06 06:09:28;;;;;;;3.00;1.95;;;1.70;98.30;;;;;;4992337;28;20417;-76
2021/01/06 06:12:20;;;;;;;2.53;1.57;;;1.90;97.90;;;;;;4987227;28;20416;-77
2021/01/06 06:15:37;;;;;;;2.33;1.83;;;1.90;97.80;;;;;;4976287;28;20427;-77
2021/01/06 06:18:24;;;;;;;2.75;1.73;;;1.70;98.20;;;;;;4954817;28;20448;-76
2021/01/06 06:20:58;;;;;;;3.10;1.70;;;1.90;97.40;;;;;;4987961;28;20895;-77
2021/01/06 06:23:44;;;;;;;2.08;1.60;;;1.90;97.40;;;;;;4986580;28;20390;-76
2021/01/06 06:26:18;;;;;;;2.20;1.63;;;1.90;97.10;;;;;;4983522;28;20400;-76
2021/01/06 06:28:49;;;;;;;2.85;1.98;;;1.80;97.50;;;;;;4978642;28;20435;-77
2021/01/06 06:31:29;;;;;;;3.63;2.50;;;1.80;97.70;;;;;;4981435;28;20400;-76
2021/01/06 06:33:58;;;;;;;3.22;2.17;;;1.90;97.40;;;;;;4982097;28;20424;-76
2021/01/06 06:36:27;;;;;;;3.30;2.03;;;1.90;97.70;;;;;;4986512;28;20402;-76
2021/01/06 06:38:53;;;;;;;7.80;2.03;;;2.00;96.90;;;;;;4993215;28;21089;-76
2021/01/06 06:41:31;;;;;;;2.40;1.40;;;2.00;96.70;;;;;;4983557;28;20406;-76
2021/01/06 06:44:25;;;;;;;2.30;1.70;;;2.00;96.30;;;;;;4984524;28;20421;-76
2021/01/06 06:47:15;;;;;;;3.58;1.63;;;2.10;96.10;;;;;;5009032;28;20920;-76
2021/01/06 06:50:12;;;;;;;1.85;1.40;;;1.90;96.40;;;;;;4984428;28;20913;-76
2021/01/06 06:52:46;;;;;;;4.38;1.83;;;1.80;96.90;;;;;;5001647;28;20461;-76
2021/01/06 06:55:31;;;;;;;3.15;1.58;;;1.80;96.40;;;;;;4978307;28;20832;-76
2021/01/06 06:58:29;;;;;;;2.87;2.00;;;1.90;96.40;;;;;;4988011;28;20478;-76
2021/01/06 07:00:56;;;;;;;3.17;2.10;;;1.80;96.60;;;;;;4988068;28;20423;-76
2021/01/06 07:03:24;;;;;;;3.73;1.93;;;;;;;;;;4981774;28;20415;-76
2021/01/06 07:05:55;;;;;;;3.08;2.25;;;1.60;97.60;;;;;;4981428;28;20466;-76
2021/01/06 07:08:23;;;;;;;3.45;2.30;;;;;;;;;;4992422;28;20521;-76
2021/01/06 07:10:58;;;;;;;3.03;2.03;;;1.50;99.90;;;;;;4982016;28;20906;-76
2021/01/06 07:13:26;;;;;;;4.35;2.50;;;1.60;99.90;;;;;;4990722;28;20908;-76
2021/01/06 07:15:54;;;;;;;2.80;1.90;;;1.60;99.90;;;;;;4987185;28;20927;-76
2021/01/06 07:18:36;;;;;;;3.30;2.17;;;1.70;99.90;;;;;;4985656;28;20949;-76
2021/01/06 07:21:17;;;;;;;3.03;2.00;;;1.70;99.90;;;;;;4980442;28;20492;-76
2021/01/06 07:23:48;;;;;;;2.28;1.42;;;1.60;99.90;;;;;;4990559;28;20434;-76
2021/01/06 07:26:19;;;;;;;2.17;1.42;;;1.70;99.90;;;;;;4984950;28;20411;-76
2021/01/06 07:28:46;;;;;;;3.20;2.30;;;1.70;99.90;;;;;;4982582;28;20438;-76
2021/01/06 07:31:19;;;;;;;3.60;2.22;;;1.60;99.90;;;;;;4980803;28;20408;-76
2021/01/06 07:33:52;;;;;;;3.47;2.00;;;1.80;99.90;;;;;;4987636;28;20424;-76
2021/01/06 07:36:22;;;;;;;3.10;1.80;;;1.70;99.90;;;;;;4989398;28;20406;-76
2021/01/06 07:38:49;;;;;;;3.20;1.95;;;1.80;99.90;;;;;;4979407;28;20398;-77
2021/01/06 07:41:17;;;;;;;2.58;1.65;;;1.90;99.90;;;;;;4979216;28;20794;-77
2021/01/06 07:44:02;;;;;;;2.72;1.80;;;1.90;99.90;;;;;;4982540;28;20431;-76
2021/01/06 07:46:32;;;;;;;2.67;1.88;;;1.90;99.90;;;;;;4983462;28;20413;-76
2021/01/06 07:49:35;;;;;;;3.65;2.22;;;1.90;99.90;;;;;;4989395;28;20909;-76
2021/01/06 07:52:21;;;;;;;3.17;1.90;;;2.00;99.90;;;;;;4968597;28;20423;-76
2021/01/06 07:54:52;;;;;;;2.35;1.70;;;1.90;99.90;;;;;;4984116;28;20505;-77
2021/01/06 07:57:41;;;;;;;3.45;1.92;;;2.00;99.90;;;;;;4984053;28;20402;-76
2021/01/06 08:00:11;;;;;;;3.28;1.60;;;2.20;99.90;;;;;;4984750;28;20408;-77
2021/01/06 08:02:46;;;;;;;2.75;2.03;;;2.20;99.90;;;;;;4991748;28;20406;-76
2021/01/06 08:05:26;;;;;;;3.30;2.38;;;2.20;99.90;;;;;;4984372;28;20414;-77
2021/01/06 08:08:04;;;;;;;3.22;2.13;;;2.30;99.90;;;;;;4984808;28;20400;-76
2021/01/06 08:10:31;;;;;;;3.20;2.17;;;2.40;99.90;;;;;;4981906;28;20388;-76
2021/01/06 08:13:26;;;;;;;2.53;1.52;;;2.60;99.90;;;;;;4987819;28;20761;-76
2021/01/06 08:15:55;;;;;;;2.50;1.70;;;2.90;99.90;;;;;;4923925;28;20440;-77
2021/01/06 08:18:41;;;;;;;2.45;1.60;;;3.00;99.90;;;;;;4989307;28;20438;-76
2021/01/06 08:21:13;;;;;;;2.53;1.52;;;3.00;99.90;;;;;;4981708;28;20396;-76
2021/01/06 08:24:07;;;;;;;1.95;1.30;;;3.00;99.90;;;;;;4984956;28;20491;-76
2021/01/06 08:26:34;;;;;;;2.00;1.50;;;3.00;99.90;;;;;;4980912;28;20734;-76
2021/01/06 08:29:16;;;;;;;5.27;4.23;;;2.90;99.90;;;;;;4986542;28;20392;-76
2021/01/06 08:31:44;;;;;;;10.98;9.05;;;2.90;99.90;;;;;;4985383;28;20403;-76
2021/01/06 08:34:20;;;;;;;13.73;11.27;;;2.90;99.90;;;;;;4981674;28;20894;-76
2021/01/06 08:36:54;;;;;;;7.40;5.43;;;2.90;99.90;;;;;;4989462;28;20410;-76
2021/01/06 08:39:25;;;;;;;7.30;4.90;;;2.80;99.90;;;;;;4978401;28;20422;-76
2021/01/06 08:41:54;;;;;;;7.57;6.03;;;2.60;99.90;;;;;;4986047;28;20398;-76
2021/01/06 08:44:32;;;;;;;5.78;4.75;;;2.80;99.90;;;;;;4983466;28;20445;-76
2021/01/06 08:47:05;;;;;;;3.88;3.10;;;2.80;99.90;;;;;;5004089;28;20493;-76
2021/01/06 08:49:34;;;;;;;3.35;2.15;;;2.90;99.90;;;;;;4990470;28;20402;-76
2021/01/06 08:52:20;;;;;;;5.15;3.60;;;3.00;99.90;;;;;;4984047;28;20944;-76
2021/01/06 08:54:56;;;;;;;4.93;2.17;;;2.90;99.90;;;;;;4977805;28;20416;-77
2021/01/06 08:57:25;;;;;;;5.05;2.95;;;2.70;99.90;;;;;;4979239;28;20391;-76
2021/01/06 08:59:51;;;;;;;3.40;2.10;;;2.80;99.90;;;;;;4981776;28;20423;-76
2021/01/06 09:02:22;;;;;;;6.78;4.78;;;2.90;99.90;;;;;;4981045;28;20444;-76
2021/01/06 09:04:51;;;;;;;5.55;4.13;;;3.10;99.90;;;;;;4973909;28;20472;-76
2021/01/06 09:07:21;;;;;;;7.50;5.43;;;3.20;99.90;;;;;;4987100;28;20493;-76
2021/01/06 09:10:01;;;;;;;7.10;5.43;;;3.30;99.90;;;;;;4984222;28;20514;-76
2021/01/06 09:12:55;;;;;;;6.78;5.20;;;3.10;99.90;;;;;;4983447;28;20403;-76
2021/01/06 09:15:40;;;;;;;7.20;5.28;;;3.00;99.90;;;;;;4986991;28;20423;-76
2021/01/06 09:18:13;;;;;;;6.22;4.50;;;2.80;99.90;;;;;;4983675;28;20425;-76
2021/01/06 09:20:53;;;;;;;6.20;4.55;;;2.80;99.90;;;;;;4981472;28;20878;-77
2021/01/06 09:23:22;;;;;;;4.90;3.40;;;2.80;99.90;;;;;;4976626;28;20436;-76
2021/01/06 09:25:51;;;;;;;3.20;2.67;;;3.00;99.90;;;;;;4978546;28;20412;-76
2021/01/06 09:28:18;;;;;;;5.18;2.80;;;3.10;99.90;;;;;;4990631;28;20403;-76
2021/01/06 09:30:45;;;;;;;3.70;2.53;;;3.10;99.90;;;;;;4974381;28;20428;-77
2021/01/06 09:33:18;;;;;;;5.03;3.10;;;3.10;99.90;;;;;;4979154;28;20404;-76
2021/01/06 09:35:44;;;;;;;5.43;3.30;;;3.00;99.90;;;;;;4984847;28;20415;-76
2021/01/06 09:38:20;;;;;;;4.72;3.08;;;3.10;99.90;;;;;;4982227;28;20423;-77
2021/01/06 09:40:46;;;;;;;5.90;4.22;;;3.20;99.90;;;;;;4987711;28;20419;-76
2021/01/06 09:43:21;;;;;;;4.85;3.45;;;3.20;99.90;;;;;;4984596;28;20395;-77
2021/01/06 09:45:48;;;;;;;5.00;3.13;;;3.30;99.90;;;;;;4986865;28;20392;-76
2021/01/06 09:48:17;;;;;;;3.80;2.55;;;3.30;99.90;;;;;;4978589;28;20495;-76
2021/01/06 09:50:47;;;;;;;5.25;3.20;;;3.30;99.90;;;;;;4985941;28;20412;-76
2021/01/06 09:53:16;;;;;;;5.60;3.78;;;3.30;99.90;;;;;;4989984;28;20426;-76
2021/01/06 09:55:44;;;;;;;4.57;3.40;;;3.40;99.90;;;;;;4978882;28;20438;-77
2021/01/06 09:58:29;;;;;;;5.72;3.42;;;3.40;99.90;;;;;;4983360;28;20433;-76
2021/01/06 10:01:03;;;;;;;5.20;3.80;;;3.60;99.90;;;;;;4982397;28;20390;-76
2021/01/06 10:03:32;;;;;;;4.82;3.40;;;3.60;99.90;;;;;;4982060;28;20414;-76
2021/01/06 10:06:14;;;;;;;4.65;3.92;;;3.50;99.90;;;;;;4978582;28;20404;-76
2021/01/06 10:08:44;;;;;;;5.38;3.40;;;3.50;99.90;;;;;;4981817;28;20454;-76
2021/01/06 10:11:27;;;;;;;4.15;3.13;;;3.40;99.90;;;;;;4985190;28;20447;-76
2021/01/06 10:14:04;;;;;;;4.50;3.33;;;3.50;99.90;;;;;;4988713;28;20550;-76
2021/01/06 10:16:36;;;;;;;4.70;4.03;;;3.60;99.90;;;;;;4989351;28;20408;-76
2021/01/06 10:19:10;;;;;;;6.60;4.13;;;3.60;99.90;;;;;;4990891;28;20409;-76
2021/01/06 10:21:48;;;;;;;5.35;3.58;;;3.70;99.90;;;;;;4987813;28;20495;-76
2021/01/06 10:24:30;;;;;;;5.70;4.10;;;3.80;99.90;;;;;;4989081;28;20418;-77
2021/01/06 10:27:05;;;;;;;4.93;4.13;;;4.00;99.90;;;;;;4986077;28;20892;-76
2021/01/06 10:29:43;;;;;;;5.82;4.00;;;4.00;99.90;;;;;;4992164;28;20469;-77
2021/01/06 10:32:21;;;;;;;5.93;4.65;;;;;;;;;;4994683;28;20797;-77
2021/01/06 10:34:50;;;;;;;5.55;4.07;;;4.20;99.90;;;;;;4986625;28;20530;-76
2021/01/06 10:37:21;;;;;;;5.00;3.58;;;4.20;94.20;;;;;;5000496;28;20412;-76
2021/01/06 10:39:50;;;;;;;5.22;3.75;;;4.40;94.60;;;;;;4983858;28;20407;-77
2021/01/06 10:42:33;;;;;;;5.43;4.10;;;4.50;98.20;;;;;;4985556;28;20460;-76
2021/01/06 10:45:10;;;;;;;5.03;3.85;;;4.40;91.50;;;;;;4987757;28;20526;-77
2021/01/06 10:47:48;;;;;;;6.63;4.30;;;;;;;;;;4992470;28;20479;-76
2021/01/06 10:50:45;;;;;;;6.88;5.10;;;4.50;91.80;;;;;;4981632;28;20444;-76
2021/01/06 10:53:20;;;;;;;6.30;4.97;;;4.60;95.10;;;;;;4977315;28;20411;-77
2021/01/06 10:55:50;;;;;;;7.10;6.32;;;4.60;93.80;;;;;;4988741;28;20430;-76
2021/01/06 10:58:37;;;;;;;7.63;5.65;;;4.50;95.00;;;;;;4981026;28;20408;-77
2021/01/06 11:01:40;;;;;;;6.10;4.97;;;4.60;95.30;;;;;;4987554;28;20483;-77
2021/01/06 11:04:26;;;;;;;7.55;5.90;;;4.80;95.20;;;;;;4976119;28;20855;-77
2021/01/06 11:06:59;;;;;;;8.05;6.15;;;5.00;95.60;;;;;;4984629;28;20419;-76
2021/01/06 11:09:33;;;;;;;6.50;5.43;;;;;;;;;;4976433;28;20467;-75
2021/01/06 11:12:28;;;;;;;6.88;5.65;;;5.30;99.50;;;;;;4986105;28;20539;-75
2021/01/06 11:15:17;;;;;;;6.93;5.40;;;5.30;99.80;;;;;;4990716;28;20513;-75
2021/01/06 11:17:45;;;;;;;5.65;5.05;;;5.50;99.90;;;;;;4975414;28;20459;-75
2021/01/06 11:20:29;;;;;;;5.35;4.80;;;;;;;;;;4988953;28;20453;-75
2021/01/06 11:23:30;;;;;;;6.47;5.25;;;5.60;96.60;;;;;;4993798;28;20402;-75
2021/01/06 11:25:59;;;;;;;5.30;4.50;;;5.70;98.50;;;;;;4981697;28;20473;-75
2021/01/06 11:28:40;;;;;;;6.57;5.30;;;5.90;99.90;;;;;;4984946;28;20446;-75
2021/01/06 11:31:21;;;;;;;6.65;5.38;;;5.70;99.90;;;;;;4979770;28;20912;-74
2021/01/06 11:33:48;;;;;;;6.30;4.30;;;5.50;99.90;;;;;;4986331;28;20494;-74
2021/01/06 11:36:42;;;;;;;6.57;4.65;;;;;;;;;;4980738;28;20402;-75
2021/01/06 11:39:10;;;;;;;5.43;4.88;;;6.00;96.60;;;;;;4981354;28;20799;-74
2021/01/06 11:42:08;;;;;;;5.73;4.53;;;6.10;95.90;;;;;;4985837;28;20484;-75
2021/01/06 11:44:37;;;;;;;3.97;3.55;;;;;;;;;;4989456;28;20462;-75
2021/01/06 11:47:20;;;;;;;5.22;3.80;;;6.60;99.90;;;;;;4988806;28;20410;-74
2021/01/06 11:49:57;;;;;;;4.38;3.90;;;;;;;;;;4965192;28;20458;-75
2021/01/06 11:52:35;;;;;;;4.70;3.92;;;6.60;95.40;;;;;;4973714;28;20411;-75
2021/01/06 11:55:10;;;;;;;4.40;3.80;;;;;;;;;;4982795;28;20410;-74
2021/01/06 11:57:42;;;;;;;4.28;3.38;;;;;;;;;;4981512;28;20412;-75
2021/01/06 12:00:29;;;;;;;3.92;3.53;;;;;;;;;;4981669;28;20459;-75
2021/01/06 12:03:02;;;;;;;4.50;4.00;;;7.10;99.90;;;;;;4976800;28;20403;-74
2021/01/06 12:05:35;;;;;;;4.88;3.63;;;7.30;99.90;;;;;;4981840;28;20911;-74
2021/01/06 12:08:17;;;;;;;3.72;3.38;;;7.30;99.90;;;;;;4980593;28;20406;-75
2021/01/06 12:10:49;;;;;;;5.88;4.90;;;;;;;;;;4982248;28;20448;-75
2021/01/06 12:13:19;;;;;;;6.43;5.67;;;;;;;;;;4982447;28;20400;-75
2021/01/06 12:15:52;;;;;;;6.72;5.70;;;;;;;;;;4981351;28;20756;-77
2021/01/06 12:18:35;;;;;;;6.85;5.18;;;;;;;;;;4980999;28;20418;-77
2021/01/06 12:21:02;;;;;;;5.80;4.78;;;7.60;95.20;;;;;;4978111;28;20556;-77
2021/01/06 12:23:43;;;;;;;5.80;4.85;;;7.60;95.40;;;;;;4980057;28;20771;-77
2021/01/06 12:26:40;;;;;;;5.43;4.40;;;7.70;94.50;;;;;;4982871;28;20450;-77
2021/01/06 12:29:10;;;;;;;5.28;4.50;;;7.50;95.00;;;;;;4980792;28;20412;-77
2021/01/06 12:31:44;;;;;;;3.22;2.83;;;7.40;95.00;;;;;;4979176;28;20417;-77
2021/01/06 12:34:15;;;;;;;3.33;2.65;;;7.60;95.20;;;;;;4981533;28;20427;-77
2021/01/06 12:37:14;;;;;;;4.60;3.65;;;7.80;94.40;;;;;;4979855;28;20409;-77
2021/01/06 12:39:43;;;;;;;2.78;2.33;;;7.80;94.60;;;;;;4981040;28;20418;-77
2021/01/06 12:42:30;;;;;;;2.60;2.35;;;8.00;93.80;;;;;;4979011;28;20423;-77
2021/01/06 12:45:15;;;;;;;2.30;2.10;;;8.10;93.80;;;;;;4980177;28;20404;-77
2021/01/06 12:47:47;;;;;;;1.23;0.70;;;8.10;93.00;;;;;;4982746;28;20403;-77
2021/01/06 12:50:17;;;;;;;0.98;0.80;;;8.00;92.30;;;;;;4979307;28;20403;-77
2021/01/06 12:52:48;;;;;;;2.38;1.80;;;7.90;93.10;;;;;;4979836;28;20395;-77
2021/01/06 12:55:20;;;;;;;4.38;3.33;;;7.90;93.10;;;;;;4980460;28;21164;-77
2021/01/06 12:57:50;;;;;;;6.67;5.93;;;7.70;93.70;;;;;;4982333;28;20490;-77
2021/01/06 13:00:41;;;;;;;8.57;7.38;;;7.60;94.50;;;;;;4993280;28;20415;-77
2021/01/06 13:03:23;;;;;;;12.73;9.88;;;7.40;95.60;;;;;;4978868;28;20734;-78
2021/01/06 13:05:53;;;;;;;8.68;7.78;;;6.70;96.90;;;;;;4977167;28;20434;-78
2021/01/06 13:08:28;;;;;;;10.13;8.43;;;6.50;97.30;;;;;;4978711;28;20400;-78
2021/01/06 13:10:54;;;;;;;11.60;9.85;;;6.20;98.20;;;;;;4979146;28;20411;-78
2021/01/06 13:13:27;;;;;;;10.25;8.95;;;6.00;99.20;;;;;;4979583;28;20404;-78
2021/01/06 13:15:58;;;;;;;9.00;8.10;;;5.90;99.70;;;;;;4980581;28;20435;-78
2021/01/06 13:18:46;;;;;;;7.07;6.35;;;5.90;99.40;;;;;;4979482;28;20510;-78
2021/01/06 13:21:31;;;;;;;11.45;9.10;;;6.00;98.50;;;;;;4978255;28;20406;-78
2021/01/06 13:24:08;;;;;;;6.22;5.13;;;6.20;99.30;;;;;;4983070;28;20743;-78
2021/01/06 13:26:39;;;;;;;7.38;6.43;;;6.40;97.70;;;;;;4980073;28;20876;-77
2021/01/06 13:29:34;;;;;;;8.57;7.65;;;6.60;97.50;;;;;;4980504;28;20414;-78
2021/01/06 13:32:09;;;;;;;8.23;6.38;;;6.70;97.30;;;;;;4957631;28;20414;-77